Address 0xd314abe170433b33716ac882fbe694f8a7b9d736 1

 
 
Txn Hash Method
Block
From
To
Value [Txn Fee]
0xd6b469103e4a5e12c4046afa25c2c9ddb8ae3ee8cd34c46cb392b6fd1890efc20x1de9c881110159012021-09-18 7:35:2817 mins ago0xd314abe170433b33716ac882fbe694f8a7b9d736OUT 0xc93ec71d4f607208afd4e5c655b250bfc62ee3620 BNB0.000322203
0x28ea9f0d77e9815ef54f773f20d999c49c6f0fa140489f6d86ed8e9c3db776d30x1de9c881110157832021-09-18 7:29:3423 mins ago0xd314abe170433b33716ac882fbe694f8a7b9d736OUT 0x366dbd9f3ee341cf0b2ee36adac9da842f4f25540 BNB0.000184135
0x147c548e60c92e5dadb7b924184656249c754a09414dfd0059e4f73b5ab85c400x1de9c881110153602021-09-18 7:08:2544 mins ago0xd314abe170433b33716ac882fbe694f8a7b9d736OUT 0xb56c574b89318e117aedda1257f06d04d80e05280 BNB0.000187935
0xe6608732e51ef39ab8de577a98d0209038a240df7628a8e4a3e5b6d238846efd0x1de9c881110152512021-09-18 7:02:5849 mins ago0xd314abe170433b33716ac882fbe694f8a7b9d736OUT 0x3456edc9bc0639427b08f1b9711eba977e2e2f070 BNB0.000203315
0x0cf245fb2da53d051c9a9765271fcddb4da57d526298bb31fbbb2113f4400d1f0x1de9c881110152392021-09-18 7:02:2250 mins ago0xd314abe170433b33716ac882fbe694f8a7b9d736OUT 0xc93ec71d4f607208afd4e5c655b250bfc62ee3620 BNB0.0002253741
0xc30d8ae3a74ce6c644df7f212064937d460b89cd274169405e747d1736e1e4d30x1de9c881110151632021-09-18 6:58:3454 mins ago0xd314abe170433b33716ac882fbe694f8a7b9d736OUT 0x6244e3aba3ea819707182c47b7c3c0d36eb474d20 BNB0.000220955
0x9194a6411c615a8dd1bd2a9879d21a49c42f99d46cd56620aa1cbd4f29683bb60x1de9c881110151362021-09-18 6:57:1355 mins ago0xd314abe170433b33716ac882fbe694f8a7b9d736OUT 0xc6e3b9f1abe9e19b555e39a2bfea8bfcf003e2220 BNB0.00018396
0x712bb9ea58cf533ce2ba7df658356c28dbc7d9baeb3cb31904c1e97a27c6d1190x1de9c881110150372021-09-18 6:52:161 hr ago0xd314abe170433b33716ac882fbe694f8a7b9d736OUT 0xc6e3b9f1abe9e19b555e39a2bfea8bfcf003e2220 BNB0.000220795
0x1003210e841145007aef9b4304fa7793bc9ca01eac987c02b132f9442cd8b2860x1de9c881110148132021-09-18 6:41:041 hr 11 mins ago0xd314abe170433b33716ac882fbe694f8a7b9d736OUT 0x6244e3aba3ea819707182c47b7c3c0d36eb474d20 BNB0.00022064283
0xa6276ceb3df359814aa56af56c26c3ac3e126b43314f0b7cd30978b1a664884d0x1de9c881110146312021-09-18 6:31:581 hr 20 mins ago0xd314abe170433b33716ac882fbe694f8a7b9d736OUT 0x6244e3aba3ea819707182c47b7c3c0d36eb474d20 BNB0.0001879962
0xf932cd83c7485fb227bae9255407d8c48c3a6fa9702789bc5e55beb9cd0a976a0x1de9c881110145972021-09-18 6:30:161 hr 22 mins ago0xd314abe170433b33716ac882fbe694f8a7b9d736OUT 0x27f5d8cf18219187db9435b749c1d7979c93d0490 BNB0.00020335
0xc46bfbbf8ec47734355c182a44f1dd5bb5c4c44997df930722904a67051b17710x1de9c881110143622021-09-18 6:18:311 hr 34 mins ago0xd314abe170433b33716ac882fbe694f8a7b9d736OUT 0x3456edc9bc0639427b08f1b9711eba977e2e2f070 BNB0.000220855
0xfb7c812ea7d603e8516974f59461c1a013fd0646bbb293730dff0541ec5e181d0x1de9c881110142932021-09-18 6:15:041 hr 37 mins ago0xd314abe170433b33716ac882fbe694f8a7b9d736OUT 0xc6e3b9f1abe9e19b555e39a2bfea8bfcf003e2220 BNB0.000212495
0xfdd80ac1b4a9d74065597103cec8f23e9040c73330fc74d8ab269376dc9c68a50x1de9c881110142772021-09-18 6:14:161 hr 38 mins ago0xd314abe170433b33716ac882fbe694f8a7b9d736OUT 0x366dbd9f3ee341cf0b2ee36adac9da842f4f25540 BNB0.000212195
0x830b9ddd124f434b27e5fdb1c661b178e1d35ebe64f61ed44f821d10a7801b640x1de9c881110142242021-09-18 6:11:371 hr 41 mins ago0xd314abe170433b33716ac882fbe694f8a7b9d736OUT 0x036d9bda3219b53b42ddebe8aa83d23a4307445d0 BNB0.000202965
0xe0eb574ef22a2c7ef71bc972c7dbe5f7a134d00d6b5b9ce195e4f22dde56da4b0x1de9c881110140382021-09-18 6:02:191 hr 50 mins ago0xd314abe170433b33716ac882fbe694f8a7b9d736OUT 0xf02807ff0c0eec53e13fed1bd1601e892ddf13ea0 BNB0.000220795
0x0aee6ad3ffa5ab1515403ee30437d71f244bfef351ae709caa4f76b302b0b72d0x1de9c881110140052021-09-18 6:00:401 hr 52 mins ago0xd314abe170433b33716ac882fbe694f8a7b9d736OUT 0xc93ec71d4f607208afd4e5c655b250bfc62ee3620 BNB0.000184135
0xd58a0565cb1e925ff8719d1ad1843a8f74351a8d7f0c261137d153aff621be960x1de9c881110134262021-09-18 5:31:432 hrs 20 mins ago0xd314abe170433b33716ac882fbe694f8a7b9d736OUT 0x6244e3aba3ea819707182c47b7c3c0d36eb474d20 BNB0.00226815
0x94d1c03b01828a1f1811511bdaa5215b0b63b3dcf4d5a8ff587f18a43782711e0x1de9c881110133622021-09-18 5:28:312 hrs 24 mins ago0xd314abe170433b33716ac882fbe694f8a7b9d736OUT 0xb56c574b89318e117aedda1257f06d04d80e05280 BNB0.00220723
0xfb4ebd980d1f30d8123869a136f52481c46ff3f6a1c9bbbb1d054a9456c665a70x1de9c881110128422021-09-18 5:01:312 hrs 51 mins ago0xd314abe170433b33716ac882fbe694f8a7b9d736OUT 0xf02807ff0c0eec53e13fed1bd1601e892ddf13ea0 BNB0.000203095
0xf95ad2bcc7bbab3b311c711b3f055bc2d8012321044c9ab35d9f1eaf8696613a0x1de9c881110127962021-09-18 4:59:132 hrs 53 mins ago0xd314abe170433b33716ac882fbe694f8a7b9d736OUT 0xf02807ff0c0eec53e13fed1bd1601e892ddf13ea0 BNB0.0001878789
0x96f0b6f7b95e4db39345919bd40326aa99dabc32175c17ceec54db30431f23bd0x1de9c881110126302021-09-18 4:50:553 hrs 1 min ago0xd314abe170433b33716ac882fbe694f8a7b9d736OUT 0xc6e3b9f1abe9e19b555e39a2bfea8bfcf003e2220 BNB0.000175375
0x390123b424bc4c0309e233fde7d82ecf5ddad7dbcb2af495bc5c8f053c0a949f0x1de9c881110126072021-09-18 4:49:463 hrs 2 mins ago0xd314abe170433b33716ac882fbe694f8a7b9d736OUT 0xc6e3b9f1abe9e19b555e39a2bfea8bfcf003e2220 BNB0.000220795
0xd9eb2d1cff1638940a1471018f0e1ceedc0d698f534d21bac4140c506b0536760x1de9c881110125622021-09-18 4:47:313 hrs 5 mins ago0xd314abe170433b33716ac882fbe694f8a7b9d736OUT 0xb56c574b89318e117aedda1257f06d04d80e05280 BNB0.000257859
0x92cf5c67cec715895eabe06f54dfe64ba0f3dbf03c7232d6d6b8981ecde2f5ad0x1de9c881110124572021-09-18 4:42:163 hrs 10 mins ago0xd314abe170433b33716ac882fbe694f8a7b9d736OUT 0xc6e3b9f1abe9e19b555e39a2bfea8bfcf003e2220 BNB0.001758928371
[ Download CSV Export 
Parent Txn Hash Block From To Value
Loading

Contract Name:
0 BNB

Compiler Version
0

Optimization Enabled:
0 BNB

Other Settings:
-NA-
Block Transaction Gas Used Reward
Age Block Fee Address BC Fee Address Voting Power Jailed Incoming
Block Uncle Number Difficulty Gas Used Reward
Loading
Loading
Make sure to use the "Vote Down" button for any spammy posts, and the "Vote Up" for interesting conversations.